createdAt,value
2023-04-23T00:01:03.151Z,95.61
2023-04-23T00:02:43.525Z,95.66
2023-04-23T00:04:23.911Z,95.81
2023-04-23T00:06:04.105Z,95.87
2023-04-23T00:07:44.410Z,95.92
2023-04-23T00:09:24.688Z,95.84
2023-04-23T00:11:05.063Z,95.93
2023-04-23T00:12:45.385Z,96.09
2023-04-23T00:14:25.728Z,96.18
2023-04-23T00:16:06.060Z,96.36
2023-04-23T00:17:46.462Z,96.31
2023-04-23T00:19:26.769Z,96.33
2023-04-23T00:21:07.080Z,96.38
2023-04-23T00:22:47.436Z,96.58
2023-04-23T00:24:27.753Z,96.61
2023-04-23T00:26:08.148Z,96.63
2023-04-23T00:27:48.431Z,96.62
2023-04-23T00:29:28.798Z,96.74
2023-04-23T00:31:09.108Z,96.77
2023-04-23T00:32:49.469Z,96.8
2023-04-23T00:34:29.749Z,96.92
2023-04-23T00:36:10.043Z,96.85
2023-04-23T00:37:50.340Z,96.86
2023-04-23T00:39:30.707Z,96.99
2023-04-23T00:41:11.004Z,96.98
2023-04-23T00:42:51.456Z,96.95
2023-04-23T00:44:31.710Z,96.81
2023-04-23T00:46:12.084Z,96.81
2023-04-23T00:47:52.377Z,96.97
2023-04-23T00:49:32.606Z,97.07
2023-04-23T00:51:12.941Z,97.39
2023-04-23T00:52:53.238Z,97.4
2023-04-23T00:54:33.588Z,97.33
2023-04-23T00:56:13.966Z,96.39
2023-04-23T00:57:54.313Z,93.33
2023-04-23T00:59:34.674Z,92.22
2023-04-23T01:01:15.110Z,91.73
2023-04-23T01:02:55.380Z,91.96
2023-04-23T01:04:35.577Z,92.24
2023-04-23T01:06:15.857Z,92.71
2023-04-23T01:07:56.183Z,92.2
2023-04-23T01:09:36.540Z,91.83
2023-04-23T01:11:16.825Z,91.58
2023-04-23T01:12:57.139Z,91.6
2023-04-23T01:14:37.513Z,91.15
2023-04-23T01:16:17.960Z,91.24
2023-04-23T01:17:58.190Z,91.39
2023-04-23T01:19:38.604Z,91.42
2023-04-23T01:21:18.912Z,90.98
2023-04-23T01:22:59.237Z,90.71
2023-04-23T01:24:39.735Z,91.25
2023-04-23T01:26:19.877Z,91.2
2023-04-23T01:28:00.188Z,91.43
2023-04-23T01:29:40.584Z,91.87
2023-04-23T01:31:21.040Z,91.75
2023-04-23T01:33:01.334Z,92.08
2023-04-23T01:34:41.967Z,91.85
2023-04-23T01:36:22.056Z,91.5
2023-04-23T01:38:02.375Z,92.16
2023-04-23T01:39:42.781Z,92.6
2023-04-23T01:41:23.154Z,92.84
2023-04-23T01:43:03.504Z,93.05
2023-04-23T01:44:43.799Z,93.72
2023-04-23T01:46:24.238Z,94.04
2023-04-23T01:48:04.532Z,94.07
2023-04-23T01:49:44.889Z,94.1
2023-04-23T01:51:25.230Z,94.42
2023-04-23T01:53:05.578Z,94.56
2023-04-23T01:54:45.933Z,94.74
2023-04-23T01:56:26.227Z,94.83
2023-04-23T01:58:06.571Z,95.18
2023-04-23T01:59:46.916Z,95.24
2023-04-23T02:01:27.361Z,95.32
2023-04-23T02:03:07.909Z,95.47
2023-04-23T02:04:48.002Z,95.6
2023-04-23T02:06:28.441Z,95.61
2023-04-23T02:09:49.110Z,95.68
2023-04-23T02:11:29.424Z,95.54
2023-04-23T02:14:50.228Z,95.61
2023-04-23T02:16:30.538Z,95.55
2023-04-23T02:18:10.802Z,95.51
2023-04-23T02:19:51.092Z,95.41
2023-04-23T02:21:31.411Z,95.45
2023-04-23T02:23:11.802Z,95.32
2023-04-23T02:24:52.202Z,95.52
2023-04-23T02:26:32.523Z,95.64
2023-04-23T02:28:12.847Z,95.79
2023-04-23T02:29:53.139Z,95.91
2023-04-23T02:31:33.434Z,95.95
2023-04-23T02:33:13.874Z,96.01
2023-04-23T02:34:54.224Z,96.1
2023-04-23T02:36:34.545Z,96.25
2023-04-23T02:38:14.833Z,96.26
2023-04-23T02:39:55.180Z,96.31
2023-04-23T02:41:35.474Z,96.38
2023-04-23T02:43:15.809Z,96.44
2023-04-23T02:44:56.147Z,96.44
2023-04-23T02:46:36.564Z,96.43
2023-04-23T02:48:16.897Z,96.46
2023-04-23T02:49:57.215Z,96.44
2023-04-23T02:51:37.537Z,96.4
2023-04-23T02:53:17.891Z,96.23
2023-04-23T02:54:58.263Z,96.26
2023-04-23T02:56:38.648Z,96.44
2023-04-23T02:58:18.997Z,96.55
2023-04-23T02:59:59.344Z,96.62
2023-04-23T03:01:39.664Z,96.68
2023-04-23T03:03:20.211Z,96.77
2023-04-23T03:05:00.385Z,96.77
2023-04-23T03:06:40.715Z,96.81
2023-04-23T03:08:21.043Z,96.8
2023-04-23T03:10:01.311Z,96.91
2023-04-23T03:11:41.733Z,96.96
2023-04-23T03:13:22.066Z,96.96
2023-04-23T03:15:02.505Z,96.97
2023-04-23T03:16:42.839Z,97.08
2023-04-23T03:18:23.086Z,97.09
2023-04-23T03:20:03.367Z,97.15
2023-04-23T03:21:43.677Z,97.15
2023-04-23T03:23:24.028Z,97.21
2023-04-23T03:25:04.400Z,97.27
2023-04-23T03:26:44.717Z,97.29
2023-04-23T03:28:25.059Z,97.34
2023-04-23T03:30:05.487Z,97.34
2023-04-23T03:31:45.862Z,97.42
2023-04-23T03:33:26.303Z,97.49
2023-04-23T03:35:06.697Z,97.52
2023-04-23T03:36:46.989Z,97.4
2023-04-23T03:38:27.332Z,97.41
2023-04-23T03:40:07.844Z,97.44
2023-04-23T03:41:48.008Z,97.44
2023-04-23T03:43:28.354Z,97.53
2023-04-23T03:45:08.721Z,97.48
2023-04-23T03:46:48.990Z,97.41
2023-04-23T03:48:29.392Z,97.39
2023-04-23T03:50:09.687Z,97.38
2023-04-23T03:51:49.952Z,96.95
2023-04-23T03:53:30.275Z,96.4
2023-04-23T03:55:10.562Z,95.69
2023-04-23T03:56:50.885Z,94.8
2023-04-23T03:58:31.192Z,94.63
2023-04-23T04:00:11.455Z,94.57
2023-04-23T04:01:51.804Z,94.59
2023-04-23T04:03:32.290Z,94.55
2023-04-23T04:05:12.615Z,94.69
2023-04-23T04:06:52.706Z,94.38
2023-04-23T04:08:32.994Z,94.44
2023-04-23T04:10:13.313Z,94.34
2023-04-23T04:11:53.674Z,94.14
2023-04-23T04:13:34.029Z,94.3
2023-04-23T04:15:14.432Z,94.35
2023-04-23T04:16:54.775Z,94.16
2023-04-23T04:18:35.066Z,94.2
2023-04-23T04:20:15.398Z,93.95
2023-04-23T04:21:55.783Z,94.11
2023-04-23T04:23:36.037Z,94.43
2023-04-23T04:25:16.404Z,94.32
2023-04-23T04:26:56.737Z,94.35
2023-04-23T04:28:36.977Z,93.97
2023-04-23T04:30:17.363Z,93.86
2023-04-23T04:31:57.685Z,93.9
2023-04-23T04:33:38.020Z,94.18
2023-04-23T04:35:18.398Z,93.85
2023-04-23T04:36:58.719Z,93.91
2023-04-23T04:38:39.024Z,93.77
2023-04-23T04:40:19.383Z,93.81
2023-04-23T04:41:59.632Z,93.77
2023-04-23T04:43:39.995Z,93.75
2023-04-23T04:45:20.384Z,93.65
2023-04-23T04:47:00.861Z,93.77
2023-04-23T04:48:40.992Z,92.9
2023-04-23T04:50:21.297Z,93.02
2023-04-23T04:52:01.653Z,92.52
2023-04-23T04:53:41.995Z,92.26
2023-04-23T04:55:22.442Z,92.15
2023-04-23T04:57:02.811Z,92.06
2023-04-23T04:58:43.156Z,92.26
2023-04-23T05:00:23.570Z,92.42
2023-04-23T05:02:04.022Z,92.2
2023-04-23T05:03:44.459Z,91.85
2023-04-23T05:05:24.622Z,91.88
2023-04-23T05:07:04.963Z,92.25
2023-04-23T05:08:45.308Z,92.61
2023-04-23T05:10:25.634Z,92.84
2023-04-23T05:12:05.956Z,92.83
2023-04-23T05:13:46.281Z,92.83
2023-04-23T05:15:26.663Z,92.63
2023-04-23T05:17:06.952Z,92.5
2023-04-23T05:18:47.262Z,92.55
2023-04-23T05:20:27.597Z,92.61
2023-04-23T05:22:07.982Z,93.24
2023-04-23T05:23:48.266Z,93.15
2023-04-23T05:25:28.612Z,93.44
2023-04-23T05:27:08.962Z,93.94
2023-04-23T05:28:49.347Z,94
2023-04-23T05:30:29.670Z,94.39
2023-04-23T05:32:10.140Z,94.52
2023-04-23T05:33:51.006Z,94.65
2023-04-23T05:35:30.754Z,94.64
2023-04-23T05:37:11.090Z,94.89
2023-04-23T05:38:51.375Z,94.95
2023-04-23T05:40:31.671Z,94.88
2023-04-23T05:42:11.987Z,94.68
2023-04-23T05:43:52.293Z,94.51
2023-04-23T05:45:32.618Z,94.38
2023-04-23T05:47:12.905Z,93.99
2023-04-23T05:48:53.216Z,94.15
2023-04-23T05:50:33.501Z,93.83
2023-04-23T05:52:13.771Z,93.49
2023-04-23T05:53:54.082Z,93.35
2023-04-23T05:55:34.411Z,94.23
2023-04-23T05:57:14.736Z,94.53
2023-04-23T05:58:55.121Z,94.61
2023-04-23T06:00:35.562Z,94.13
2023-04-23T06:02:15.884Z,94.05
2023-04-23T06:03:56.391Z,92.77
2023-04-23T06:05:36.584Z,91.85
2023-04-23T06:07:16.960Z,91.54
2023-04-23T06:08:57.248Z,91.31
2023-04-23T06:10:37.571Z,91.22
2023-04-23T06:12:17.873Z,91.61
2023-04-23T06:13:58.176Z,92.02
2023-04-23T06:15:38.559Z,91.33
2023-04-23T06:17:18.791Z,89.9
2023-04-23T06:18:59.120Z,89.69
2023-04-23T06:20:39.379Z,88.77
2023-04-23T06:22:19.708Z,88.61
2023-04-23T06:24:00.026Z,89.63
2023-04-23T06:25:40.319Z,89.49
2023-04-23T06:27:20.653Z,89.28
2023-04-23T06:29:01.018Z,89.39
2023-04-23T06:30:41.412Z,89.54
2023-04-23T06:32:21.752Z,89.61
2023-04-23T06:34:02.112Z,89.62
2023-04-23T06:35:42.491Z,88.02
2023-04-23T06:37:22.791Z,87.56
2023-04-23T06:39:03.153Z,87.31
2023-04-23T06:40:43.459Z,87.22
2023-04-23T06:42:23.874Z,86.8
2023-04-23T06:44:04.235Z,86.77
2023-04-23T06:45:44.512Z,85.85
2023-04-23T06:47:24.889Z,84.78
2023-04-23T06:49:05.219Z,84.68
2023-04-23T06:50:45.544Z,85.32
2023-04-23T06:52:25.876Z,85.16
2023-04-23T06:54:06.216Z,84.44
2023-04-23T06:55:46.569Z,85.1
2023-04-23T06:57:26.958Z,85.99
2023-04-23T06:59:07.285Z,85.7
2023-04-23T07:00:47.678Z,86.51
2023-04-23T07:02:27.990Z,86.27
2023-04-23T07:04:08.389Z,86.14
2023-04-23T07:05:48.595Z,86.37
2023-04-23T07:07:28.941Z,86.53
2023-04-23T07:09:09.295Z,85.32
2023-04-23T07:10:49.764Z,86.29
2023-04-23T07:12:30.162Z,85.23
2023-04-23T07:14:10.533Z,85.32
2023-04-23T07:15:50.890Z,85.64
2023-04-23T07:17:31.371Z,83.19
2023-04-23T07:19:11.663Z,83.25
2023-04-23T07:20:52.014Z,83.51
2023-04-23T07:22:32.304Z,82.64
2023-04-23T07:24:12.679Z,82.61
2023-04-23T07:25:53.071Z,81.8
2023-04-23T07:27:33.432Z,80.95
2023-04-23T07:29:13.792Z,75.6
2023-04-23T07:30:54.159Z,75.75
2023-04-23T07:32:34.501Z,75.7
2023-04-23T07:34:14.887Z,74.31
2023-04-23T07:35:55.213Z,74.66
2023-04-23T07:37:35.598Z,72.24
2023-04-23T07:39:15.924Z,70.38
2023-04-23T07:40:56.234Z,67.06
2023-04-23T07:42:36.587Z,67.56
2023-04-23T07:44:17.005Z,66.94
2023-04-23T07:45:57.499Z,66.46
2023-04-23T07:47:37.756Z,64.69
2023-04-23T07:49:18.082Z,66.31
2023-04-23T07:50:58.420Z,66.72
2023-04-23T07:52:38.844Z,61.94
2023-04-23T07:54:19.225Z,62.36
2023-04-23T07:55:59.581Z,59.42
2023-04-23T07:57:39.940Z,61.75
2023-04-23T07:59:20.327Z,61.36
2023-04-23T08:01:00.676Z,62.12
2023-04-23T08:02:41.266Z,62.4
2023-04-23T08:04:21.915Z,65.23
2023-04-23T08:06:01.720Z,63.15
2023-04-23T08:07:42.055Z,61.03
2023-04-23T08:09:22.414Z,64.29
2023-04-23T08:11:02.645Z,63.07
2023-04-23T08:12:42.947Z,58.67
2023-04-23T08:14:23.281Z,58.77
2023-04-23T08:15:21.714Z,0
2023-04-23T08:17:01.971Z,58.12
2023-04-23T08:18:46.138Z,58.4
2023-04-23T08:20:22.831Z,58.18
2023-04-23T08:22:02.986Z,56.64
2023-04-23T08:23:43.382Z,57.67
2023-04-23T08:25:23.707Z,58.36
2023-04-23T08:27:04.015Z,56.61
2023-04-23T08:28:44.453Z,55.36
2023-04-23T08:30:24.911Z,57.05
2023-04-23T08:32:05.346Z,55.48
2023-04-23T08:33:45.703Z,57.72
2023-04-23T08:35:26.089Z,56.95
2023-04-23T08:37:09.945Z,53.01
2023-04-23T08:38:46.799Z,56.41
2023-04-23T08:40:27.084Z,56.43
2023-04-23T08:42:07.455Z,53.73
2023-04-23T08:43:47.955Z,52.95
2023-04-23T08:45:28.208Z,52.97
2023-04-23T08:47:08.538Z,52.63
2023-04-23T08:48:48.878Z,50.83
2023-04-23T08:50:29.203Z,54.25
2023-04-23T08:52:09.561Z,51.56
2023-04-23T08:53:49.980Z,47.68
2023-04-23T08:55:30.392Z,48.81
2023-04-23T08:57:10.734Z,50.06
2023-04-23T08:58:51.117Z,47.95
2023-04-23T09:00:31.562Z,48.09
2023-04-23T09:02:11.838Z,50.69
2023-04-23T09:03:52.243Z,52
2023-04-23T09:05:32.571Z,48.96
2023-04-23T09:07:12.968Z,51.38
2023-04-23T09:08:53.299Z,48.4
2023-04-23T09:10:33.684Z,49.74
2023-04-23T09:12:14.044Z,49.58
2023-04-23T09:13:54.402Z,47.66
2023-04-23T09:15:34.793Z,46.84
2023-04-23T09:17:15.127Z,46.59
2023-04-23T09:18:55.425Z,47.49
2023-04-23T09:20:35.853Z,48.66
2023-04-23T09:22:16.210Z,48.06
2023-04-23T09:23:56.550Z,49.5
2023-04-23T09:25:36.851Z,50.51
2023-04-23T09:27:17.246Z,46.57
2023-04-23T09:28:57.544Z,46.49
2023-04-23T09:30:37.961Z,47.03
2023-04-23T09:32:18.401Z,47.23
2023-04-23T09:33:58.675Z,47.18
2023-04-23T09:35:40.743Z,48.34
2023-04-23T09:37:19.367Z,48.5
2023-04-23T09:38:59.710Z,48.52
2023-04-23T09:40:40.027Z,46.38
2023-04-23T09:42:20.387Z,47.9
2023-04-23T09:44:00.644Z,48.62
2023-04-23T09:45:41.035Z,48.39
2023-04-23T09:47:22.598Z,47.57
2023-04-23T09:49:01.721Z,46.87
2023-04-23T09:50:42.037Z,47.58
2023-04-23T09:52:22.446Z,47.34
2023-04-23T09:54:02.770Z,46.17
2023-04-23T09:55:43.207Z,47.08
2023-04-23T09:57:23.551Z,45.93
2023-04-23T09:59:03.830Z,45.36
2023-04-23T10:00:44.201Z,44.69
2023-04-23T10:02:24.685Z,45.51
2023-04-23T10:04:05.090Z,45.77
2023-04-23T10:06:00.254Z,45.59
2023-04-23T10:07:25.624Z,44.47
2023-04-23T10:09:06.053Z,44.59
2023-04-23T10:11:00.081Z,45.01
2023-04-23T10:12:41.102Z,44.73
2023-04-23T10:14:07.079Z,46.89
2023-04-23T10:15:47.467Z,46.21
2023-04-23T10:17:27.939Z,48.96
2023-04-23T10:19:08.130Z,47.41
2023-04-23T10:20:48.438Z,49.07
2023-04-23T10:22:28.821Z,48.64
2023-04-23T10:24:09.162Z,49.95
2023-04-23T10:25:49.501Z,50.94
2023-04-23T10:27:44.553Z,50.22
2023-04-23T10:29:10.228Z,51.39
2023-04-23T10:30:50.613Z,51.39
2023-04-23T10:32:30.974Z,51.58
2023-04-23T10:34:11.330Z,51.53
2023-04-23T10:35:51.604Z,52.67
2023-04-23T10:37:31.931Z,51.54
2023-04-23T10:39:12.316Z,53.3
2023-04-23T10:40:52.576Z,52.09
2023-04-23T10:42:32.925Z,52.49
2023-04-23T10:44:15.965Z,51.82
2023-04-23T10:45:53.513Z,52.28
2023-04-23T10:47:33.852Z,50.31
2023-04-23T10:49:14.143Z,51.28
2023-04-23T10:52:34.919Z,47.84
2023-04-23T10:54:15.294Z,48.48
2023-04-23T10:55:55.632Z,47.49
2023-04-23T10:57:36.042Z,46.24
2023-04-23T10:59:16.473Z,46.58
2023-04-23T11:00:56.780Z,47.1
2023-04-23T11:02:37.224Z,46.47
2023-04-23T11:04:17.931Z,45.27
2023-04-23T11:05:57.843Z,46.9
2023-04-23T11:07:38.126Z,47.79
2023-04-23T11:09:18.433Z,47.28
2023-04-23T11:10:58.745Z,48.2
2023-04-23T11:12:39.048Z,47.24
2023-04-23T11:14:19.388Z,47.61
2023-04-23T11:15:59.708Z,47.75
2023-04-23T11:17:39.921Z,46.68
2023-04-23T11:19:20.825Z,46.87
2023-04-23T11:21:00.585Z,47.06
2023-04-23T11:22:40.863Z,48.74
2023-04-23T11:24:21.195Z,47.73
2023-04-23T11:26:01.483Z,46.25
2023-04-23T11:27:41.744Z,45.77
2023-04-23T11:29:22.074Z,45.16
2023-04-23T11:31:02.394Z,43.38
2023-04-23T11:32:42.804Z,43.76
2023-04-23T11:34:23.004Z,42.14
2023-04-23T11:36:03.270Z,41.1
2023-04-23T11:37:43.678Z,44.29
2023-04-23T11:39:24.034Z,42.87
2023-04-23T11:41:04.387Z,41.99
2023-04-23T11:42:44.622Z,43.1
2023-04-23T11:44:25.007Z,43.5
2023-04-23T11:46:05.376Z,44.97
2023-04-23T11:47:45.678Z,44.76
2023-04-23T11:49:25.986Z,44.95
2023-04-23T11:51:06.350Z,46.21
2023-04-23T11:52:46.657Z,46.7
2023-04-23T11:54:26.998Z,46.32
2023-04-23T11:56:07.415Z,47.04
2023-04-23T11:57:47.722Z,46.71
2023-04-23T11:59:27.989Z,47.71
2023-04-23T12:01:08.331Z,46.77
2023-04-23T12:02:48.762Z,48.57
2023-04-23T12:04:29.171Z,46.99
2023-04-23T12:06:09.344Z,48.79
2023-04-23T12:07:49.743Z,48.37
2023-04-23T12:09:30.104Z,48.59
2023-04-23T12:11:10.413Z,48.67
2023-04-23T12:12:50.801Z,49.79
2023-04-23T12:14:31.278Z,51.85
2023-04-23T12:16:11.642Z,52.82
2023-04-23T12:17:51.955Z,53.91
2023-04-23T12:19:32.304Z,54.99
2023-04-23T12:21:12.712Z,55.41
2023-04-23T12:22:53.009Z,54.62
2023-04-23T12:24:33.391Z,55.72
2023-04-23T12:26:13.708Z,52.73
2023-04-23T12:27:54.049Z,51.99
2023-04-23T12:29:34.313Z,50.8
2023-04-23T12:31:14.699Z,50.59
2023-04-23T12:32:55.065Z,47.36
2023-04-23T12:34:35.327Z,46.74
2023-04-23T12:36:15.637Z,46.55
2023-04-23T12:37:56.060Z,47.36
2023-04-23T12:39:36.448Z,47.46
2023-04-23T12:41:16.787Z,46.23
2023-04-23T12:42:57.200Z,47.05
2023-04-23T12:44:37.440Z,48.43
2023-04-23T12:46:17.746Z,47.97
2023-04-23T12:47:58.167Z,46.8
2023-04-23T12:49:38.487Z,46.06
2023-04-23T12:51:18.853Z,44.61
2023-04-23T12:52:59.253Z,44.15
2023-04-23T12:54:39.521Z,44.41
2023-04-23T12:56:20.007Z,41.26
2023-04-23T12:58:00.334Z,41.2
2023-04-23T12:59:40.881Z,43.26
2023-04-23T13:01:21.025Z,39.91
2023-04-23T13:03:01.502Z,39.96
2023-04-23T13:04:41.781Z,40.39
2023-04-23T13:06:22.127Z,40.34
2023-04-23T13:08:02.538Z,40.26
2023-04-23T13:09:43.100Z,41.26
2023-04-23T13:11:23.078Z,42.14
2023-04-23T13:13:03.354Z,42.18
2023-04-23T13:14:43.631Z,43.67
2023-04-23T13:16:23.991Z,42.12
2023-04-23T13:18:04.313Z,42.37
2023-04-23T13:19:44.601Z,44.16
2023-04-23T13:21:26.248Z,45.25
2023-04-23T13:23:05.164Z,46.76
2023-04-23T13:24:45.468Z,46.63
2023-04-23T13:26:25.788Z,45.77
2023-04-23T13:28:06.021Z,47.23
2023-04-23T13:29:46.388Z,47.42
2023-04-23T13:31:26.667Z,48.23
2023-04-23T13:33:07.005Z,47.58
2023-04-23T13:34:47.273Z,48.93
2023-04-23T13:36:27.671Z,49.09
2023-04-23T13:38:08.029Z,49.67
2023-04-23T13:39:48.427Z,49.63
2023-04-23T13:41:28.792Z,49.64
2023-04-23T13:43:09.194Z,50.8
2023-04-23T13:44:49.567Z,50.39
2023-04-23T13:46:30.096Z,50.42
2023-04-23T13:48:10.326Z,51.1
2023-04-23T13:49:50.651Z,52.4
2023-04-23T13:51:34.707Z,51.82
2023-04-23T13:53:11.366Z,52.52
2023-04-23T13:54:51.742Z,52.18
2023-04-23T13:56:32.206Z,52.47
2023-04-23T13:58:12.535Z,53.4
2023-04-23T13:59:52.919Z,54.15
2023-04-23T14:01:33.335Z,52.01
2023-04-23T14:03:13.653Z,52.02
2023-04-23T14:04:54.001Z,51.47
2023-04-23T14:06:34.115Z,50.27
2023-04-23T14:08:14.454Z,53.39
2023-04-23T14:09:54.830Z,52.44
2023-04-23T14:11:35.271Z,51.81
2023-04-23T14:13:15.639Z,52.97
2023-04-23T14:14:55.913Z,51.59
2023-04-23T14:16:36.309Z,50.24
2023-04-23T14:18:16.702Z,52.02
2023-04-23T14:19:57.033Z,51.35
2023-04-23T14:21:37.322Z,52.12
2023-04-23T14:23:17.618Z,49.18
2023-04-23T14:24:58.045Z,50.35
2023-04-23T14:28:18.758Z,48.2
2023-04-23T14:29:59.152Z,48.58
2023-04-23T14:31:39.525Z,45.74
2023-04-23T14:33:19.830Z,47.57
2023-04-23T14:35:00.159Z,46.28
2023-04-23T14:36:40.467Z,47.67
2023-04-23T14:38:20.788Z,45.2
2023-04-23T14:40:01.145Z,44.28
2023-04-23T14:41:41.479Z,44.32
2023-04-23T14:43:21.766Z,45.08
2023-04-23T14:45:02.069Z,43.89
2023-04-23T14:46:42.441Z,45.52
2023-04-23T14:48:22.839Z,45.72
2023-04-23T14:50:03.219Z,44.74
2023-04-23T14:51:43.566Z,45.3
2023-04-23T14:53:23.909Z,45.63
2023-04-23T14:55:04.225Z,45.53
2023-04-23T14:56:44.584Z,44.34
2023-04-23T14:58:24.921Z,43.81
2023-04-23T15:00:05.302Z,43.45
2023-04-23T15:01:45.619Z,43.64
2023-04-23T15:03:26.022Z,43.49
2023-04-23T15:05:06.318Z,44.11
2023-04-23T15:06:46.631Z,44.74
2023-04-23T15:08:26.948Z,45.42
2023-04-23T15:10:07.352Z,46.24
2023-04-23T15:11:47.697Z,46.04
2023-04-23T15:13:28.076Z,46.84
2023-04-23T15:15:08.397Z,48.63
2023-04-23T15:16:50.027Z,48.92
2023-04-23T15:18:29.104Z,49.77
2023-04-23T15:20:09.429Z,50.6
2023-04-23T15:21:49.784Z,51.32
2023-04-23T15:23:30.183Z,51.28
2023-04-23T15:25:10.510Z,51.91
2023-04-23T15:26:50.891Z,52.08
2023-04-23T15:28:31.237Z,52.14
2023-04-23T15:30:11.505Z,52.72
2023-04-23T15:31:51.938Z,52.78
2023-04-23T15:33:32.289Z,53.18
2023-04-23T15:35:12.672Z,52.8
2023-04-23T15:36:52.988Z,53.65
2023-04-23T15:38:33.291Z,53.06
2023-04-23T15:40:13.634Z,53.06
2023-04-23T15:41:53.952Z,51.52
2023-04-23T15:43:34.261Z,53.27
2023-04-23T15:45:14.574Z,53.31
2023-04-23T15:46:54.913Z,53.04
2023-04-23T15:48:35.330Z,54.08
2023-04-23T15:50:15.603Z,53.47
2023-04-23T15:51:55.996Z,54.21
2023-04-23T15:53:36.293Z,53.18
2023-04-23T15:55:16.682Z,53.52
2023-04-23T15:56:57.052Z,53.17
2023-04-23T15:58:37.393Z,53.91
2023-04-23T16:00:17.855Z,52.12
2023-04-23T16:01:58.158Z,52.89
2023-04-23T16:03:38.640Z,51.97
2023-04-23T16:05:18.953Z,51.22
2023-04-23T16:06:59.283Z,51.39
2023-04-23T16:08:39.661Z,50.43
2023-04-23T16:10:19.996Z,51.72
2023-04-23T16:12:00.393Z,51.11
2023-04-23T16:13:40.747Z,51.18
2023-04-23T16:15:21.122Z,52.66
2023-04-23T16:17:01.614Z,51.97
2023-04-23T16:18:41.932Z,52.6
2023-04-23T16:20:22.274Z,53.93
2023-04-23T16:22:02.734Z,55.05
2023-04-23T16:23:43.088Z,53.57
2023-04-23T16:25:23.359Z,54.74
2023-04-23T16:27:03.661Z,53.95
2023-04-23T16:28:44.553Z,55.94
2023-04-23T16:30:24.422Z,56.75
2023-04-23T16:32:04.879Z,57.98
2023-04-23T16:33:45.296Z,57.41
2023-04-23T16:35:25.640Z,58.6
2023-04-23T16:37:06.059Z,58.86
2023-04-23T16:38:48.047Z,58.92
2023-04-23T16:40:26.780Z,60.12
2023-04-23T16:42:07.057Z,58.23
2023-04-23T16:43:47.482Z,59.39
2023-04-23T16:45:27.737Z,58.7
2023-04-23T16:47:08.058Z,58.5
2023-04-23T16:48:48.471Z,59.14
2023-04-23T16:50:28.855Z,59.95
2023-04-23T16:52:09.229Z,59.35
2023-04-23T16:53:49.556Z,59.91
2023-04-23T16:55:29.911Z,60.98
2023-04-23T16:57:10.271Z,61.37
2023-04-23T16:58:50.652Z,61.62
2023-04-23T17:00:31.006Z,62.58
2023-04-23T17:02:11.527Z,62.42
2023-04-23T17:03:51.878Z,62.94
2023-04-23T17:05:32.124Z,62.91
2023-04-23T17:07:12.592Z,61.38
2023-04-23T17:08:53.022Z,61.24
2023-04-23T17:10:33.401Z,61.28
2023-04-23T17:12:13.745Z,61.45
2023-04-23T17:13:54.090Z,61.14
2023-04-23T17:15:34.472Z,60.59
2023-04-23T17:17:14.891Z,60.41
2023-04-23T17:18:55.326Z,60.92
2023-04-23T17:20:35.683Z,60.34
2023-04-23T17:22:16.128Z,60.86
2023-04-23T17:23:56.431Z,61.13
2023-04-23T17:25:36.895Z,61.32
2023-04-23T17:27:17.280Z,62.27
2023-04-23T17:28:57.676Z,64.52
2023-04-23T17:30:38.028Z,65.76
2023-04-23T17:32:18.580Z,65.86
2023-04-23T17:33:58.909Z,65.53
2023-04-23T17:35:39.369Z,65.88
2023-04-23T17:37:19.745Z,66.47
2023-04-23T17:39:00.081Z,66.12
2023-04-23T17:40:40.518Z,65.91
2023-04-23T17:42:20.938Z,66.19
2023-04-23T17:44:01.356Z,66.79
2023-04-23T17:45:41.782Z,66.53
2023-04-23T17:47:22.180Z,66.7
2023-04-23T17:49:02.534Z,66.93
2023-04-23T17:50:42.962Z,68.47
2023-04-23T17:52:23.414Z,68.33
2023-04-23T17:54:03.828Z,66.95
2023-04-23T17:55:44.187Z,67.24
2023-04-23T17:57:24.568Z,67.72
2023-04-23T17:59:04.949Z,67.36
2023-04-23T18:00:45.463Z,66.98
2023-04-23T18:02:25.921Z,66.67
2023-04-23T18:04:06.421Z,67.05
2023-04-23T18:05:46.674Z,67.94
2023-04-23T18:07:27.071Z,67.94
2023-04-23T18:09:07.499Z,66.83
2023-04-23T18:10:47.891Z,66.69
2023-04-23T18:12:28.316Z,67.25
2023-04-23T18:14:08.734Z,67.95
2023-04-23T18:15:49.164Z,66.87
2023-04-23T18:17:29.565Z,67.06
2023-04-23T18:19:09.974Z,65.78
2023-04-23T18:20:50.392Z,66.03
2023-04-23T18:22:30.756Z,66.68
2023-04-23T18:24:11.101Z,66.73
2023-04-23T18:25:51.446Z,66.7
2023-04-23T18:27:34.046Z,66.86
2023-04-23T18:29:12.266Z,67.92
2023-04-23T18:30:52.733Z,68.69
2023-04-23T18:32:34.749Z,68.4
2023-04-23T18:34:13.566Z,69.2
2023-04-23T18:35:53.927Z,68.89
2023-04-23T18:37:34.300Z,69.1
2023-04-23T18:39:14.785Z,69.34
2023-04-23T18:40:55.149Z,69.09
2023-04-23T18:42:35.551Z,69.07
2023-04-23T18:44:15.928Z,69.04
2023-04-23T18:45:56.484Z,69.32
2023-04-23T18:47:36.887Z,69.26
2023-04-23T18:49:17.130Z,69.59
2023-04-23T18:50:57.650Z,69.73
2023-04-23T18:52:38.114Z,70.29
2023-04-23T18:54:18.540Z,69.87
2023-04-23T18:55:58.906Z,70.44
2023-04-23T18:57:39.363Z,70.92
2023-04-23T18:59:19.833Z,70.46
2023-04-23T19:01:00.181Z,69.72
2023-04-23T19:02:40.621Z,69.43
2023-04-23T19:04:21.030Z,69.13
2023-04-23T19:06:01.254Z,69.88
2023-04-23T19:07:41.663Z,70.62
2023-04-23T19:09:22.032Z,72.27
2023-04-23T19:11:02.453Z,73.48
2023-04-23T19:12:42.891Z,73.9
2023-04-23T19:14:23.329Z,72.78
2023-04-23T19:16:03.843Z,72.6
2023-04-23T19:17:44.284Z,73
2023-04-23T19:19:24.727Z,72.96
2023-04-23T19:21:05.165Z,72.14
2023-04-23T19:22:45.585Z,72.12
2023-04-23T19:24:26.026Z,72.44
2023-04-23T19:26:06.307Z,72.38
2023-04-23T19:27:46.617Z,71.46
2023-04-23T19:29:27.023Z,71.57
2023-04-23T19:31:07.473Z,72.17
2023-04-23T19:32:47.875Z,71.8
2023-04-23T19:34:28.293Z,71.53
2023-04-23T19:36:08.614Z,71.19
2023-04-23T19:37:49.002Z,70.29
2023-04-23T19:39:29.449Z,68.77
2023-04-23T19:41:09.793Z,64.58
2023-04-23T19:42:50.257Z,63.94
2023-04-23T19:44:30.713Z,64.72
2023-04-23T19:46:11.105Z,65.47
2023-04-23T19:47:51.628Z,64.8
2023-04-23T19:49:32.008Z,64.7
2023-04-23T19:51:12.403Z,65.37
2023-04-23T19:52:52.850Z,65.89
2023-04-23T19:54:33.254Z,66.51
2023-04-23T19:56:13.584Z,67.17
2023-04-23T19:57:53.995Z,68.11
2023-04-23T19:59:34.411Z,69.01
2023-04-23T20:01:14.750Z,70.4
2023-04-23T20:02:55.164Z,71.24
2023-04-23T20:04:35.345Z,72.22
2023-04-23T20:06:15.689Z,73.95
2023-04-23T20:07:56.099Z,74.57
2023-04-23T20:09:36.547Z,74.81
2023-04-23T20:11:16.927Z,75.84
2023-04-23T20:12:57.324Z,76.27
2023-04-23T20:14:37.740Z,77.34
2023-04-23T20:16:18.124Z,78.41
2023-04-23T20:17:58.555Z,77.23
2023-04-23T20:19:38.890Z,76.53
2023-04-23T20:21:19.235Z,76.96
2023-04-23T20:22:59.698Z,76.85
2023-04-23T20:24:40.071Z,77.82
2023-04-23T20:26:20.433Z,78.72
2023-04-23T20:28:00.782Z,79.57
2023-04-23T20:29:41.551Z,80.34
2023-04-23T20:31:21.540Z,80.68
2023-04-23T20:33:01.989Z,80.92
2023-04-23T20:34:42.333Z,81.3
2023-04-23T20:36:22.664Z,80.76
2023-04-23T20:38:03.110Z,81.19
2023-04-23T20:39:43.959Z,81.68
2023-04-23T20:41:23.902Z,82.27
2023-04-23T20:43:04.308Z,82.11
2023-04-23T20:44:44.616Z,82.23
2023-04-23T20:46:24.992Z,81.79
2023-04-23T20:48:05.379Z,82.14
2023-04-23T20:49:45.522Z,79.96
2023-04-23T20:51:25.834Z,80.16
2023-04-23T20:53:06.219Z,80.72
2023-04-23T20:54:46.532Z,80.34
2023-04-23T20:56:26.924Z,79.69
2023-04-23T20:58:07.310Z,79.71
2023-04-23T20:59:47.748Z,79.9
2023-04-23T21:01:28.154Z,80.66
2023-04-23T21:03:08.653Z,80.08
2023-04-23T21:04:49.039Z,79.8
2023-04-23T21:06:29.336Z,80.04
2023-04-23T21:08:09.739Z,79.86
2023-04-23T21:09:50.205Z,79.9
2023-04-23T21:11:30.577Z,80.15
2023-04-23T21:13:11.016Z,79.99
2023-04-23T21:14:51.409Z,80.05
2023-04-23T21:16:31.998Z,80.19
2023-04-23T21:18:12.361Z,80.54
2023-04-23T21:19:52.763Z,80.88
2023-04-23T21:21:33.209Z,81.23
2023-04-23T21:23:13.551Z,81.69
2023-04-23T21:24:53.861Z,81.89
2023-04-23T21:26:34.157Z,82.08
2023-04-23T21:28:14.462Z,82.56
2023-04-23T21:29:54.749Z,82.62
2023-04-23T21:31:35.093Z,82.59
2023-04-23T21:33:15.378Z,82.9
2023-04-23T21:34:55.671Z,83.18
2023-04-23T21:36:35.988Z,83.89
2023-04-23T21:38:16.420Z,84.28
2023-04-23T21:39:56.933Z,84.59
2023-04-23T21:41:37.388Z,84.98
2023-04-23T21:43:17.833Z,85.58